sensor_id;sensor_type;location;lat;lon;timestamp;P1;durP1;ratioP1;P2;durP2;ratioP2
39140;SDS011;24875;48.436;10.298;2023-11-19T00:00:24;4.83;;;2.13;;
39140;SDS011;24875;48.436;10.298;2023-11-19T00:02:51;2.50;;;1.70;;
39140;SDS011;24875;48.436;10.298;2023-11-19T00:05:19;5.50;;;2.03;;
39140;SDS011;24875;48.436;10.298;2023-11-19T00:07:45;3.10;;;2.07;;
39140;SDS011;24875;48.436;10.298;2023-11-19T00:10:13;4.70;;;2.20;;
39140;SDS011;24875;48.436;10.298;2023-11-19T00:12:44;4.47;;;2.10;;
39140;SDS011;24875;48.436;10.298;2023-11-19T00:15:11;2.80;;;1.90;;
39140;SDS011;24875;48.436;10.298;2023-11-19T00:17:38;3.97;;;2.20;;
39140;SDS011;24875;48.436;10.298;2023-11-19T00:20:09;5.03;;;1.87;;
39140;SDS011;24875;48.436;10.298;2023-11-19T00:22:38;2.80;;;1.70;;
39140;SDS011;24875;48.436;10.298;2023-11-19T00:25:05;3.23;;;1.90;;
39140;SDS011;24875;48.436;10.298;2023-11-19T00:27:32;3.80;;;2.00;;
39140;SDS011;24875;48.436;10.298;2023-11-19T00:29:58;2.00;;;1.50;;
39140;SDS011;24875;48.436;10.298;2023-11-19T00:32:25;3.67;;;2.10;;
39140;SDS011;24875;48.436;10.298;2023-11-19T00:34:51;2.87;;;1.97;;
39140;SDS011;24875;48.436;10.298;2023-11-19T00:37:18;3.97;;;2.20;;
39140;SDS011;24875;48.436;10.298;2023-11-19T00:39:46;3.17;;;1.80;;
39140;SDS011;24875;48.436;10.298;2023-11-19T00:42:12;2.97;;;2.00;;
39140;SDS011;24875;48.436;10.298;2023-11-19T00:44:39;2.97;;;1.93;;
39140;SDS011;24875;48.436;10.298;2023-11-19T00:47:06;3.33;;;1.80;;
39140;SDS011;24875;48.436;10.298;2023-11-19T00:49:32;2.37;;;1.67;;
39140;SDS011;24875;48.436;10.298;2023-11-19T00:51:59;3.73;;;1.70;;
39140;SDS011;24875;48.436;10.298;2023-11-19T00:54:25;2.27;;;1.50;;
39140;SDS011;24875;48.436;10.298;2023-11-19T00:56:53;2.80;;;1.87;;
39140;SDS011;24875;48.436;10.298;2023-11-19T00:59:20;3.13;;;1.90;;
39140;SDS011;24875;48.436;10.298;2023-11-19T01:01:47;2.80;;;1.80;;
39140;SDS011;24875;48.436;10.298;2023-11-19T01:04:14;2.93;;;1.90;;
39140;SDS011;24875;48.436;10.298;2023-11-19T01:06:40;4.30;;;1.63;;
39140;SDS011;24875;48.436;10.298;2023-11-19T01:09:08;2.10;;;1.40;;
39140;SDS011;24875;48.436;10.298;2023-11-19T01:11:35;2.67;;;1.73;;
39140;SDS011;24875;48.436;10.298;2023-11-19T01:14:03;2.83;;;1.47;;
39140;SDS011;24875;48.436;10.298;2023-11-19T01:16:29;3.37;;;1.97;;
39140;SDS011;24875;48.436;10.298;2023-11-19T01:18:56;3.63;;;2.00;;
39140;SDS011;24875;48.436;10.298;2023-11-19T01:21:22;2.43;;;1.80;;
39140;SDS011;24875;48.436;10.298;2023-11-19T01:23:49;2.73;;;1.63;;
39140;SDS011;24875;48.436;10.298;2023-11-19T01:26:15;4.03;;;2.17;;
39140;SDS011;24875;48.436;10.298;2023-11-19T01:28:42;2.43;;;1.97;;
39140;SDS011;24875;48.436;10.298;2023-11-19T01:31:11;2.90;;;2.20;;
39140;SDS011;24875;48.436;10.298;2023-11-19T01:33:38;3.33;;;2.00;;
39140;SDS011;24875;48.436;10.298;2023-11-19T01:36:05;3.90;;;2.13;;
39140;SDS011;24875;48.436;10.298;2023-11-19T01:38:33;2.43;;;1.60;;
39140;SDS011;24875;48.436;10.298;2023-11-19T01:40:59;3.27;;;2.13;;
39140;SDS011;24875;48.436;10.298;2023-11-19T01:43:33;3.23;;;2.03;;
39140;SDS011;24875;48.436;10.298;2023-11-19T01:46:00;2.57;;;1.77;;
39140;SDS011;24875;48.436;10.298;2023-11-19T01:48:28;4.17;;;2.00;;
39140;SDS011;24875;48.436;10.298;2023-11-19T01:50:57;2.77;;;1.97;;
39140;SDS011;24875;48.436;10.298;2023-11-19T01:53:24;2.77;;;1.83;;
39140;SDS011;24875;48.436;10.298;2023-11-19T01:55:51;5.67;;;3.03;;
39140;SDS011;24875;48.436;10.298;2023-11-19T01:58:17;4.50;;;2.40;;
39140;SDS011;24875;48.436;10.298;2023-11-19T02:00:44;3.73;;;1.80;;
39140;SDS011;24875;48.436;10.298;2023-11-19T02:03:11;3.17;;;2.13;;
39140;SDS011;24875;48.436;10.298;2023-11-19T02:05:40;3.10;;;2.00;;
39140;SDS011;24875;48.436;10.298;2023-11-19T02:08:07;2.33;;;1.60;;
39140;SDS011;24875;48.436;10.298;2023-11-19T02:10:33;3.23;;;1.90;;
39140;SDS011;24875;48.436;10.298;2023-11-19T02:13:01;2.97;;;1.90;;
39140;SDS011;24875;48.436;10.298;2023-11-19T02:15:30;2.67;;;1.97;;
39140;SDS011;24875;48.436;10.298;2023-11-19T02:17:57;4.10;;;2.10;;
39140;SDS011;24875;48.436;10.298;2023-11-19T02:20:23;3.20;;;1.77;;
39140;SDS011;24875;48.436;10.298;2023-11-19T02:22:52;2.77;;;1.60;;
39140;SDS011;24875;48.436;10.298;2023-11-19T02:25:19;3.17;;;1.80;;
39140;SDS011;24875;48.436;10.298;2023-11-19T02:27:54;5.70;;;2.43;;
39140;SDS011;24875;48.436;10.298;2023-11-19T02:30:24;4.13;;;2.03;;
39140;SDS011;24875;48.436;10.298;2023-11-19T02:32:51;4.03;;;1.90;;
39140;SDS011;24875;48.436;10.298;2023-11-19T02:35:18;3.73;;;1.70;;
39140;SDS011;24875;48.436;10.298;2023-11-19T02:37:46;3.00;;;1.90;;
39140;SDS011;24875;48.436;10.298;2023-11-19T02:40:13;2.83;;;1.83;;
39140;SDS011;24875;48.436;10.298;2023-11-19T02:42:40;3.43;;;1.77;;
39140;SDS011;24875;48.436;10.298;2023-11-19T02:45:08;3.37;;;2.20;;
39140;SDS011;24875;48.436;10.298;2023-11-19T02:47:39;5.20;;;2.30;;
39140;SDS011;24875;48.436;10.298;2023-11-19T02:50:06;4.57;;;2.27;;
39140;SDS011;24875;48.436;10.298;2023-11-19T02:52:38;2.90;;;2.10;;
39140;SDS011;24875;48.436;10.298;2023-11-19T02:55:06;2.47;;;1.60;;
39140;SDS011;24875;48.436;10.298;2023-11-19T02:57:34;2.67;;;1.67;;
39140;SDS011;24875;48.436;10.298;2023-11-19T03:00:01;2.60;;;1.97;;
39140;SDS011;24875;48.436;10.298;2023-11-19T03:02:38;2.57;;;1.70;;
39140;SDS011;24875;48.436;10.298;2023-11-19T03:05:09;4.70;;;1.80;;
39140;SDS011;24875;48.436;10.298;2023-11-19T03:07:36;3.60;;;2.13;;
39140;SDS011;24875;48.436;10.298;2023-11-19T03:10:03;3.87;;;1.67;;
39140;SDS011;24875;48.436;10.298;2023-11-19T03:12:30;2.53;;;1.50;;
39140;SDS011;24875;48.436;10.298;2023-11-19T03:14:57;3.63;;;1.90;;
39140;SDS011;24875;48.436;10.298;2023-11-19T03:17:23;3.83;;;2.57;;
39140;SDS011;24875;48.436;10.298;2023-11-19T03:19:51;3.57;;;1.93;;
39140;SDS011;24875;48.436;10.298;2023-11-19T03:22:18;2.93;;;1.73;;
39140;SDS011;24875;48.436;10.298;2023-11-19T03:24:45;5.13;;;2.33;;
39140;SDS011;24875;48.436;10.298;2023-11-19T03:27:12;3.30;;;1.73;;
39140;SDS011;24875;48.436;10.298;2023-11-19T03:29:38;4.03;;;2.13;;
39140;SDS011;24875;48.436;10.298;2023-11-19T03:32:05;3.83;;;1.93;;
39140;SDS011;24875;48.436;10.298;2023-11-19T03:34:32;4.27;;;2.20;;
39140;SDS011;24875;48.436;10.298;2023-11-19T03:36:59;2.73;;;2.10;;
39140;SDS011;24875;48.436;10.298;2023-11-19T03:39:26;3.83;;;2.13;;
39140;SDS011;24875;48.436;10.298;2023-11-19T03:41:52;2.97;;;2.00;;
39140;SDS011;24875;48.436;10.298;2023-11-19T03:44:19;4.33;;;2.03;;
39140;SDS011;24875;48.436;10.298;2023-11-19T03:46:46;3.60;;;2.27;;
39140;SDS011;24875;48.436;10.298;2023-11-19T03:49:13;4.37;;;2.47;;
39140;SDS011;24875;48.436;10.298;2023-11-19T03:51:39;4.20;;;2.20;;
39140;SDS011;24875;48.436;10.298;2023-11-19T03:54:07;3.27;;;2.10;;
39140;SDS011;24875;48.436;10.298;2023-11-19T03:56:33;3.03;;;1.70;;
39140;SDS011;24875;48.436;10.298;2023-11-19T03:59:00;3.73;;;1.87;;
39140;SDS011;24875;48.436;10.298;2023-11-19T04:01:27;3.83;;;2.37;;
39140;SDS011;24875;48.436;10.298;2023-11-19T04:03:53;3.23;;;1.67;;
39140;SDS011;24875;48.436;10.298;2023-11-19T04:06:20;3.60;;;1.87;;
39140;SDS011;24875;48.436;10.298;2023-11-19T04:08:47;4.33;;;2.57;;
39140;SDS011;24875;48.436;10.298;2023-11-19T04:11:16;4.30;;;2.67;;
39140;SDS011;24875;48.436;10.298;2023-11-19T04:13:42;4.17;;;2.40;;
39140;SDS011;24875;48.436;10.298;2023-11-19T04:16:09;4.37;;;2.10;;
39140;SDS011;24875;48.436;10.298;2023-11-19T04:18:35;3.33;;;2.10;;
39140;SDS011;24875;48.436;10.298;2023-11-19T04:21:02;3.23;;;1.93;;
39140;SDS011;24875;48.436;10.298;2023-11-19T04:23:32;3.37;;;2.33;;
39140;SDS011;24875;48.436;10.298;2023-11-19T04:26:01;3.77;;;2.30;;
39140;SDS011;24875;48.436;10.298;2023-11-19T04:28:30;3.57;;;2.37;;
39140;SDS011;24875;48.436;10.298;2023-11-19T04:30:56;3.33;;;2.00;;
39140;SDS011;24875;48.436;10.298;2023-11-19T04:33:23;4.37;;;2.33;;
39140;SDS011;24875;48.436;10.298;2023-11-19T04:35:50;4.73;;;2.47;;
39140;SDS011;24875;48.436;10.298;2023-11-19T04:38:16;3.10;;;1.80;;
39140;SDS011;24875;48.436;10.298;2023-11-19T04:40:43;2.87;;;1.80;;
39140;SDS011;24875;48.436;10.298;2023-11-19T04:43:09;4.27;;;2.07;;
39140;SDS011;24875;48.436;10.298;2023-11-19T04:45:37;3.20;;;2.13;;
39140;SDS011;24875;48.436;10.298;2023-11-19T04:48:04;3.37;;;2.20;;
39140;SDS011;24875;48.436;10.298;2023-11-19T04:50:31;4.00;;;2.07;;
39140;SDS011;24875;48.436;10.298;2023-11-19T04:52:57;4.23;;;1.97;;
39140;SDS011;24875;48.436;10.298;2023-11-19T04:55:24;3.60;;;2.03;;
39140;SDS011;24875;48.436;10.298;2023-11-19T04:57:53;3.90;;;2.23;;
39140;SDS011;24875;48.436;10.298;2023-11-19T05:00:20;4.10;;;2.17;;
39140;SDS011;24875;48.436;10.298;2023-11-19T05:02:48;3.83;;;2.10;;
39140;SDS011;24875;48.436;10.298;2023-11-19T05:05:15;5.20;;;2.80;;
39140;SDS011;24875;48.436;10.298;2023-11-19T05:07:42;4.50;;;2.43;;
39140;SDS011;24875;48.436;10.298;2023-11-19T05:10:09;3.70;;;2.30;;
39140;SDS011;24875;48.436;10.298;2023-11-19T05:12:35;3.93;;;2.03;;
39140;SDS011;24875;48.436;10.298;2023-11-19T05:15:02;3.30;;;2.07;;
39140;SDS011;24875;48.436;10.298;2023-11-19T05:17:29;2.90;;;2.00;;
39140;SDS011;24875;48.436;10.298;2023-11-19T05:19:56;3.77;;;2.20;;
39140;SDS011;24875;48.436;10.298;2023-11-19T05:22:23;3.10;;;1.77;;
39140;SDS011;24875;48.436;10.298;2023-11-19T05:24:51;2.80;;;1.87;;
39140;SDS011;24875;48.436;10.298;2023-11-19T05:27:17;3.83;;;2.33;;
39140;SDS011;24875;48.436;10.298;2023-11-19T05:29:44;3.27;;;1.93;;
39140;SDS011;24875;48.436;10.298;2023-11-19T05:32:10;2.57;;;2.00;;
39140;SDS011;24875;48.436;10.298;2023-11-19T05:34:37;3.40;;;2.07;;
39140;SDS011;24875;48.436;10.298;2023-11-19T05:37:05;5.00;;;2.50;;
39140;SDS011;24875;48.436;10.298;2023-11-19T05:39:31;4.37;;;2.10;;
39140;SDS011;24875;48.436;10.298;2023-11-19T05:41:58;3.80;;;2.10;;
39140;SDS011;24875;48.436;10.298;2023-11-19T05:44:24;4.00;;;2.30;;
39140;SDS011;24875;48.436;10.298;2023-11-19T05:46:51;4.43;;;2.13;;
39140;SDS011;24875;48.436;10.298;2023-11-19T05:49:17;3.93;;;1.87;;
39140;SDS011;24875;48.436;10.298;2023-11-19T05:51:44;3.63;;;2.07;;
39140;SDS011;24875;48.436;10.298;2023-11-19T05:54:12;3.73;;;2.27;;
39140;SDS011;24875;48.436;10.298;2023-11-19T05:56:39;3.20;;;2.33;;
39140;SDS011;24875;48.436;10.298;2023-11-19T05:59:05;3.17;;;2.10;;
39140;SDS011;24875;48.436;10.298;2023-11-19T06:01:42;6.50;;;2.40;;
39140;SDS011;24875;48.436;10.298;2023-11-19T06:04:09;3.90;;;2.30;;
39140;SDS011;24875;48.436;10.298;2023-11-19T06:06:36;5.03;;;2.10;;
39140;SDS011;24875;48.436;10.298;2023-11-19T06:09:03;3.93;;;2.30;;
39140;SDS011;24875;48.436;10.298;2023-11-19T06:11:32;4.27;;;2.57;;
39140;SDS011;24875;48.436;10.298;2023-11-19T06:14:00;4.87;;;2.03;;
39140;SDS011;24875;48.436;10.298;2023-11-19T06:16:27;5.73;;;3.17;;
39140;SDS011;24875;48.436;10.298;2023-11-19T06:18:54;5.20;;;2.63;;
39140;SDS011;24875;48.436;10.298;2023-11-19T06:21:20;3.30;;;1.90;;
39140;SDS011;24875;48.436;10.298;2023-11-19T06:23:47;3.50;;;2.30;;
39140;SDS011;24875;48.436;10.298;2023-11-19T06:26:14;3.93;;;2.20;;
39140;SDS011;24875;48.436;10.298;2023-11-19T06:28:41;4.40;;;2.30;;
39140;SDS011;24875;48.436;10.298;2023-11-19T06:31:08;3.43;;;1.97;;
39140;SDS011;24875;48.436;10.298;2023-11-19T06:33:35;3.50;;;1.80;;
39140;SDS011;24875;48.436;10.298;2023-11-19T06:36:01;3.97;;;2.20;;
39140;SDS011;24875;48.436;10.298;2023-11-19T06:38:28;4.03;;;2.07;;
39140;SDS011;24875;48.436;10.298;2023-11-19T06:40:54;3.43;;;1.97;;
39140;SDS011;24875;48.436;10.298;2023-11-19T06:43:20;5.63;;;2.47;;
39140;SDS011;24875;48.436;10.298;2023-11-19T06:45:48;3.53;;;2.30;;
39140;SDS011;24875;48.436;10.298;2023-11-19T06:48:15;4.23;;;2.33;;
39140;SDS011;24875;48.436;10.298;2023-11-19T06:50:42;4.57;;;2.20;;
39140;SDS011;24875;48.436;10.298;2023-11-19T06:53:08;3.67;;;1.87;;
39140;SDS011;24875;48.436;10.298;2023-11-19T06:55:35;4.37;;;2.47;;
39140;SDS011;24875;48.436;10.298;2023-11-19T06:58:02;3.00;;;2.27;;
39140;SDS011;24875;48.436;10.298;2023-11-19T07:00:28;5.07;;;2.53;;
39140;SDS011;24875;48.436;10.298;2023-11-19T07:02:58;6.27;;;3.23;;
39140;SDS011;24875;48.436;10.298;2023-11-19T07:05:24;5.10;;;2.43;;
39140;SDS011;24875;48.436;10.298;2023-11-19T07:07:51;5.07;;;2.80;;
39140;SDS011;24875;48.436;10.298;2023-11-19T07:10:19;4.53;;;2.43;;
39140;SDS011;24875;48.436;10.298;2023-11-19T07:12:45;4.97;;;2.97;;
39140;SDS011;24875;48.436;10.298;2023-11-19T07:15:12;5.30;;;2.40;;
39140;SDS011;24875;48.436;10.298;2023-11-19T07:17:38;3.47;;;2.00;;
39140;SDS011;24875;48.436;10.298;2023-11-19T07:20:08;7.83;;;2.43;;
39140;SDS011;24875;48.436;10.298;2023-11-19T07:22:38;4.00;;;2.37;;
39140;SDS011;24875;48.436;10.298;2023-11-19T07:25:05;4.40;;;2.27;;
39140;SDS011;24875;48.436;10.298;2023-11-19T07:27:31;4.43;;;2.70;;
39140;SDS011;24875;48.436;10.298;2023-11-19T07:29:58;2.27;;;1.53;;
39140;SDS011;24875;48.436;10.298;2023-11-19T07:32:24;4.80;;;2.50;;
39140;SDS011;24875;48.436;10.298;2023-11-19T07:34:51;3.70;;;2.33;;
39140;SDS011;24875;48.436;10.298;2023-11-19T07:37:19;4.10;;;2.33;;
39140;SDS011;24875;48.436;10.298;2023-11-19T07:39:45;3.47;;;2.40;;
39140;SDS011;24875;48.436;10.298;2023-11-19T07:42:12;3.13;;;2.20;;
39140;SDS011;24875;48.436;10.298;2023-11-19T07:44:38;3.90;;;2.10;;
39140;SDS011;24875;48.436;10.298;2023-11-19T07:47:05;3.53;;;2.07;;
39140;SDS011;24875;48.436;10.298;2023-11-19T07:49:31;5.83;;;3.23;;
39140;SDS011;24875;48.436;10.298;2023-11-19T07:51:58;5.27;;;2.70;;
39140;SDS011;24875;48.436;10.298;2023-11-19T07:54:26;5.90;;;2.50;;
39140;SDS011;24875;48.436;10.298;2023-11-19T07:56:52;3.77;;;1.63;;
39140;SDS011;24875;48.436;10.298;2023-11-19T07:59:19;3.37;;;1.90;;
39140;SDS011;24875;48.436;10.298;2023-11-19T08:01:45;2.20;;;1.40;;
39140;SDS011;24875;48.436;10.298;2023-11-19T08:04:12;2.93;;;1.80;;
39140;SDS011;24875;48.436;10.298;2023-11-19T08:06:38;2.10;;;1.83;;
39140;SDS011;24875;48.436;10.298;2023-11-19T08:09:05;3.20;;;1.80;;
39140;SDS011;24875;48.436;10.298;2023-11-19T08:11:39;1.80;;;1.40;;
39140;SDS011;24875;48.436;10.298;2023-11-19T08:14:06;2.40;;;1.60;;
39140;SDS011;24875;48.436;10.298;2023-11-19T08:16:33;1.77;;;1.23;;
39140;SDS011;24875;48.436;10.298;2023-11-19T08:19:00;2.33;;;1.27;;
39140;SDS011;24875;48.436;10.298;2023-11-19T08:21:26;2.73;;;1.60;;
39140;SDS011;24875;48.436;10.298;2023-11-19T08:23:53;1.60;;;1.30;;
39140;SDS011;24875;48.436;10.298;2023-11-19T08:26:19;2.87;;;1.60;;
39140;SDS011;24875;48.436;10.298;2023-11-19T08:28:47;4.60;;;1.53;;
39140;SDS011;24875;48.436;10.298;2023-11-19T08:31:13;1.63;;;1.23;;
39140;SDS011;24875;48.436;10.298;2023-11-19T08:33:40;2.43;;;1.20;;
39140;SDS011;24875;48.436;10.298;2023-11-19T08:36:07;2.30;;;1.37;;
39140;SDS011;24875;48.436;10.298;2023-11-19T08:38:34;2.53;;;1.37;;
39140;SDS011;24875;48.436;10.298;2023-11-19T08:41:01;2.33;;;1.70;;
39140;SDS011;24875;48.436;10.298;2023-11-19T08:43:27;2.70;;;1.67;;
39140;SDS011;24875;48.436;10.298;2023-11-19T08:45:56;2.00;;;1.73;;
39140;SDS011;24875;48.436;10.298;2023-11-19T08:48:22;2.90;;;1.57;;
39140;SDS011;24875;48.436;10.298;2023-11-19T08:50:49;2.13;;;1.43;;
39140;SDS011;24875;48.436;10.298;2023-11-19T08:53:15;1.70;;;1.40;;
39140;SDS011;24875;48.436;10.298;2023-11-19T08:55:42;7.20;;;1.80;;
39140;SDS011;24875;48.436;10.298;2023-11-19T08:58:08;2.67;;;1.60;;
39140;SDS011;24875;48.436;10.298;2023-11-19T09:00:35;1.73;;;1.10;;
39140;SDS011;24875;48.436;10.298;2023-11-19T09:03:02;2.00;;;1.50;;
39140;SDS011;24875;48.436;10.298;2023-11-19T09:05:29;2.73;;;1.70;;
39140;SDS011;24875;48.436;10.298;2023-11-19T09:07:55;2.20;;;1.50;;
39140;SDS011;24875;48.436;10.298;2023-11-19T09:10:22;2.33;;;1.70;;
39140;SDS011;24875;48.436;10.298;2023-11-19T09:12:48;2.43;;;1.53;;
39140;SDS011;24875;48.436;10.298;2023-11-19T09:15:15;1.97;;;1.27;;
39140;SDS011;24875;48.436;10.298;2023-11-19T09:17:41;1.83;;;1.43;;
39140;SDS011;24875;48.436;10.298;2023-11-19T09:20:10;1.63;;;1.10;;
39140;SDS011;24875;48.436;10.298;2023-11-19T09:22:40;7.30;;;1.30;;
39140;SDS011;24875;48.436;10.298;2023-11-19T09:25:07;1.97;;;1.50;;
39140;SDS011;24875;48.436;10.298;2023-11-19T09:27:34;1.63;;;1.23;;
39140;SDS011;24875;48.436;10.298;2023-11-19T09:30:00;1.57;;;0.90;;
39140;SDS011;24875;48.436;10.298;2023-11-19T09:32:28;1.70;;;1.10;;
39140;SDS011;24875;48.436;10.298;2023-11-19T09:34:55;1.70;;;1.20;;
39140;SDS011;24875;48.436;10.298;2023-11-19T09:37:23;2.20;;;1.30;;
39140;SDS011;24875;48.436;10.298;2023-11-19T09:39:49;2.00;;;1.13;;
39140;SDS011;24875;48.436;10.298;2023-11-19T09:42:16;1.70;;;1.37;;
39140;SDS011;24875;48.436;10.298;2023-11-19T09:44:43;1.87;;;1.30;;
39140;SDS011;24875;48.436;10.298;2023-11-19T09:47:10;1.97;;;1.37;;
39140;SDS011;24875;48.436;10.298;2023-11-19T09:49:38;1.70;;;1.20;;
39140;SDS011;24875;48.436;10.298;2023-11-19T09:52:05;1.23;;;0.80;;
39140;SDS011;24875;48.436;10.298;2023-11-19T09:54:33;2.10;;;1.30;;
39140;SDS011;24875;48.436;10.298;2023-11-19T09:56:59;1.97;;;1.07;;
39140;SDS011;24875;48.436;10.298;2023-11-19T09:59:29;1.60;;;1.20;;
39140;SDS011;24875;48.436;10.298;2023-11-19T10:01:55;2.30;;;1.20;;
39140;SDS011;24875;48.436;10.298;2023-11-19T10:04:23;1.87;;;1.10;;
39140;SDS011;24875;48.436;10.298;2023-11-19T10:06:51;0.70;;;0.67;;
39140;SDS011;24875;48.436;10.298;2023-11-19T10:09:18;1.50;;;1.00;;
39140;SDS011;24875;48.436;10.298;2023-11-19T10:11:46;1.20;;;1.03;;
39140;SDS011;24875;48.436;10.298;2023-11-19T10:14:12;1.90;;;1.10;;
39140;SDS011;24875;48.436;10.298;2023-11-19T10:16:41;1.73;;;1.17;;
39140;SDS011;24875;48.436;10.298;2023-11-19T10:19:08;1.93;;;1.00;;
39140;SDS011;24875;48.436;10.298;2023-11-19T10:21:44;1.67;;;1.00;;
39140;SDS011;24875;48.436;10.298;2023-11-19T10:24:11;1.40;;;1.20;;
39140;SDS011;24875;48.436;10.298;2023-11-19T10:26:38;1.43;;;1.07;;
39140;SDS011;24875;48.436;10.298;2023-11-19T10:29:07;4.93;;;2.70;;
39140;SDS011;24875;48.436;10.298;2023-11-19T10:31:34;3.33;;;2.07;;
39140;SDS011;24875;48.436;10.298;2023-11-19T10:34:00;1.70;;;1.10;;
39140;SDS011;24875;48.436;10.298;2023-11-19T10:36:37;1.17;;;1.07;;
39140;SDS011;24875;48.436;10.298;2023-11-19T10:39:04;1.93;;;1.40;;
39140;SDS011;24875;48.436;10.298;2023-11-19T10:41:30;1.10;;;0.90;;
39140;SDS011;24875;48.436;10.298;2023-11-19T10:43:58;1.47;;;1.03;;
39140;SDS011;24875;48.436;10.298;2023-11-19T10:46:36;1.20;;;1.00;;
39140;SDS011;24875;48.436;10.298;2023-11-19T10:49:04;1.43;;;1.00;;
39140;SDS011;24875;48.436;10.298;2023-11-19T10:51:31;1.00;;;0.80;;
39140;SDS011;24875;48.436;10.298;2023-11-19T10:53:59;0.50;;;0.50;;
39140;SDS011;24875;48.436;10.298;2023-11-19T10:56:30;0.50;;;0.50;;
39140;SDS011;24875;48.436;10.298;2023-11-19T10:58:58;1.10;;;0.60;;
39140;SDS011;24875;48.436;10.298;2023-11-19T11:01:26;0.60;;;0.60;;
39140;SDS011;24875;48.436;10.298;2023-11-19T11:03:59;1.03;;;0.67;;
39140;SDS011;24875;48.436;10.298;2023-11-19T11:06:27;1.27;;;0.80;;
39140;SDS011;24875;48.436;10.298;2023-11-19T11:08:55;1.70;;;1.00;;
39140;SDS011;24875;48.436;10.298;2023-11-19T11:11:22;1.70;;;0.90;;
39140;SDS011;24875;48.436;10.298;2023-11-19T11:13:49;1.13;;;0.90;;
39140;SDS011;24875;48.436;10.298;2023-11-19T11:16:17;0.67;;;0.67;;
39140;SDS011;24875;48.436;10.298;2023-11-19T11:18:45;0.60;;;0.60;;
39140;SDS011;24875;48.436;10.298;2023-11-19T11:21:17;1.43;;;0.67;;
39140;SDS011;24875;48.436;10.298;2023-11-19T11:23:54;2.07;;;1.10;;
39140;SDS011;24875;48.436;10.298;2023-11-19T11:26:48;1.80;;;0.70;;
39140;SDS011;24875;48.436;10.298;2023-11-19T11:29:37;1.90;;;0.60;;
39140;SDS011;24875;48.436;10.298;2023-11-19T11:32:10;1.07;;;0.67;;
39140;SDS011;24875;48.436;10.298;2023-11-19T11:34:49;0.67;;;0.67;;
39140;SDS011;24875;48.436;10.298;2023-11-19T11:37:29;1.00;;;0.87;;
39140;SDS011;24875;48.436;10.298;2023-11-19T11:39:58;0.63;;;0.60;;
39140;SDS011;24875;48.436;10.298;2023-11-19T11:42:34;0.97;;;0.77;;
39140;SDS011;24875;48.436;10.298;2023-11-19T11:45:02;0.87;;;0.63;;
39140;SDS011;24875;48.436;10.298;2023-11-19T11:50:30;2.20;;;0.80;;
39140;SDS011;24875;48.436;10.298;2023-11-19T11:55:53;0.80;;;0.80;;
39140;SDS011;24875;48.436;10.298;2023-11-19T11:58:25;0.80;;;0.70;;
39140;SDS011;24875;48.436;10.298;2023-11-19T12:00:56;0.67;;;0.60;;
39140;SDS011;24875;48.436;10.298;2023-11-19T12:03:26;0.93;;;0.67;;
39140;SDS011;24875;48.436;10.298;2023-11-19T12:05:53;1.30;;;0.87;;
39140;SDS011;24875;48.436;10.298;2023-11-19T12:08:24;0.70;;;0.63;;
39140;SDS011;24875;48.436;10.298;2023-11-19T12:10:53;1.63;;;0.83;;
39140;SDS011;24875;48.436;10.298;2023-11-19T12:13:23;1.30;;;0.70;;
39140;SDS011;24875;48.436;10.298;2023-11-19T12:18:36;0.53;;;0.53;;
39140;SDS011;24875;48.436;10.298;2023-11-19T12:21:05;1.17;;;0.70;;
39140;SDS011;24875;48.436;10.298;2023-11-19T12:23:35;0.47;;;0.40;;
39140;SDS011;24875;48.436;10.298;2023-11-19T12:26:20;0.50;;;0.50;;
39140;SDS011;24875;48.436;10.298;2023-11-19T12:28:59;0.75;;;0.70;;
39140;SDS011;24875;48.436;10.298;2023-11-19T12:31:28;1.42;;;0.80;;
39140;SDS011;24875;48.436;10.298;2023-11-19T12:33:55;1.03;;;0.80;;
39140;SDS011;24875;48.436;10.298;2023-11-19T12:36:21;1.08;;;0.50;;
39140;SDS011;24875;48.436;10.298;2023-11-19T12:38:49;2.05;;;0.65;;
39140;SDS011;24875;48.436;10.298;2023-11-19T12:41:16;1.00;;;0.57;;
39140;SDS011;24875;48.436;10.298;2023-11-19T12:43:45;2.03;;;0.68;;
39140;SDS011;24875;48.436;10.298;2023-11-19T12:46:18;1.05;;;0.57;;
39140;SDS011;24875;48.436;10.298;2023-11-19T12:48:45;0.60;;;0.60;;
39140;SDS011;24875;48.436;10.298;2023-11-19T12:51:12;0.50;;;0.50;;
39140;SDS011;24875;48.436;10.298;2023-11-19T12:53:47;0.60;;;0.60;;
39140;SDS011;24875;48.436;10.298;2023-11-19T12:56:16;0.70;;;0.65;;
39140;SDS011;24875;48.436;10.298;2023-11-19T12:58:43;0.73;;;0.73;;
39140;SDS011;24875;48.436;10.298;2023-11-19T13:01:09;0.52;;;0.40;;
39140;SDS011;24875;48.436;10.298;2023-11-19T13:03:41;0.80;;;0.70;;
39140;SDS011;24875;48.436;10.298;2023-11-19T13:06:08;0.68;;;0.60;;
39140;SDS011;24875;48.436;10.298;2023-11-19T13:08:37;0.43;;;0.43;;
39140;SDS011;24875;48.436;10.298;2023-11-19T13:11:04;0.60;;;0.52;;
39140;SDS011;24875;48.436;10.298;2023-11-19T13:13:33;0.55;;;0.55;;
39140;SDS011;24875;48.436;10.298;2023-11-19T13:16:19;0.50;;;0.50;;
39140;SDS011;24875;48.436;10.298;2023-11-19T13:18:45;0.80;;;0.80;;
39140;SDS011;24875;48.436;10.298;2023-11-19T13:21:12;0.60;;;0.60;;
39140;SDS011;24875;48.436;10.298;2023-11-19T13:23:39;0.75;;;0.60;;
39140;SDS011;24875;48.436;10.298;2023-11-19T13:26:06;1.00;;;0.70;;
39140;SDS011;24875;48.436;10.298;2023-11-19T13:28:33;2.13;;;0.68;;
39140;SDS011;24875;48.436;10.298;2023-11-19T13:31:00;1.27;;;0.60;;
39140;SDS011;24875;48.436;10.298;2023-11-19T13:33:27;1.48;;;0.73;;
39140;SDS011;24875;48.436;10.298;2023-11-19T13:35:54;0.57;;;0.57;;
39140;SDS011;24875;48.436;10.298;2023-11-19T13:38:21;1.75;;;0.80;;
39140;SDS011;24875;48.436;10.298;2023-11-19T13:40:48;1.17;;;0.73;;
39140;SDS011;24875;48.436;10.298;2023-11-19T13:43:14;0.60;;;0.50;;
39140;SDS011;24875;48.436;10.298;2023-11-19T13:45:42;0.50;;;0.50;;
39140;SDS011;24875;48.436;10.298;2023-11-19T13:48:08;0.40;;;0.40;;
39140;SDS011;24875;48.436;10.298;2023-11-19T13:50:35;0.32;;;0.32;;
39140;SDS011;24875;48.436;10.298;2023-11-19T13:53:01;0.75;;;0.40;;
39140;SDS011;24875;48.436;10.298;2023-11-19T13:55:30;0.88;;;0.57;;
39140;SDS011;24875;48.436;10.298;2023-11-19T13:57:56;0.65;;;0.60;;
39140;SDS011;24875;48.436;10.298;2023-11-19T14:00:22;0.47;;;0.47;;
39140;SDS011;24875;48.436;10.298;2023-11-19T14:02:50;0.40;;;0.40;;
39140;SDS011;24875;48.436;10.298;2023-11-19T14:05:17;0.68;;;0.68;;
39140;SDS011;24875;48.436;10.298;2023-11-19T14:07:44;0.68;;;0.60;;
39140;SDS011;24875;48.436;10.298;2023-11-19T14:10:13;0.40;;;0.40;;
39140;SDS011;24875;48.436;10.298;2023-11-19T14:12:40;0.77;;;0.63;;
39140;SDS011;24875;48.436;10.298;2023-11-19T14:15:07;0.40;;;0.40;;
39140;SDS011;24875;48.436;10.298;2023-11-19T14:17:37;0.40;;;0.40;;
39140;SDS011;24875;48.436;10.298;2023-11-19T14:20:05;0.50;;;0.50;;
39140;SDS011;24875;48.436;10.298;2023-11-19T14:22:37;1.27;;;0.88;;
39140;SDS011;24875;48.436;10.298;2023-11-19T14:25:04;0.40;;;0.40;;
39140;SDS011;24875;48.436;10.298;2023-11-19T14:27:35;0.80;;;0.80;;
39140;SDS011;24875;48.436;10.298;2023-11-19T14:30:01;0.60;;;0.50;;
39140;SDS011;24875;48.436;10.298;2023-11-19T14:32:28;0.60;;;0.60;;
39140;SDS011;24875;48.436;10.298;2023-11-19T14:34:54;0.50;;;0.50;;
39140;SDS011;24875;48.436;10.298;2023-11-19T14:37:22;0.50;;;0.50;;
39140;SDS011;24875;48.436;10.298;2023-11-19T14:39:49;0.60;;;0.60;;
39140;SDS011;24875;48.436;10.298;2023-11-19T14:42:16;0.70;;;0.60;;
39140;SDS011;24875;48.436;10.298;2023-11-19T14:44:42;0.50;;;0.50;;